sensor_id;sensor_type;location;lat;lon;timestamp;pressure;altitude;pressure_sealevel;temperature;humidity
55604;BME280;41468;48.838;9.330;2023-05-08T00:00:21;98572.16;;;15.61;100.00
55604;BME280;41468;48.838;9.330;2023-05-08T00:02:48;98577.25;;;15.66;100.00
55604;BME280;41468;48.838;9.330;2023-05-08T00:05:15;98570.56;;;15.60;100.00
55604;BME280;41468;48.838;9.330;2023-05-08T00:07:42;98580.00;;;15.55;100.00
55604;BME280;41468;48.838;9.330;2023-05-08T00:10:22;98571.38;;;15.57;100.00
55604;BME280;41468;48.838;9.330;2023-05-08T00:12:49;98575.69;;;15.65;100.00
55604;BME280;41468;48.838;9.330;2023-05-08T00:15:16;98572.94;;;15.65;100.00
55604;BME280;41468;48.838;9.330;2023-05-08T00:17:42;98564.69;;;15.43;100.00
55604;BME280;41468;48.838;9.330;2023-05-08T00:20:09;98568.63;;;15.53;100.00
55604;BME280;41468;48.838;9.330;2023-05-08T00:22:37;98562.72;;;15.48;100.00
55604;BME280;41468;48.838;9.330;2023-05-08T00:25:04;98564.69;;;15.29;100.00
55604;BME280;41468;48.838;9.330;2023-05-08T00:27:31;98564.69;;;15.29;100.00
55604;BME280;41468;48.838;9.330;2023-05-08T00:29:58;98569.00;;;15.23;100.00
55604;BME280;41468;48.838;9.330;2023-05-08T00:32:25;98571.38;;;15.28;100.00
55604;BME280;41468;48.838;9.330;2023-05-08T00:34:52;98565.09;;;15.13;100.00
55604;BME280;41468;48.838;9.330;2023-05-08T00:37:18;98563.50;;;15.23;100.00
55604;BME280;41468;48.838;9.330;2023-05-08T00:39:45;98565.47;;;15.19;100.00
55604;BME280;41468;48.838;9.330;2023-05-08T00:42:12;98571.75;;;15.16;100.00
55604;BME280;41468;48.838;9.330;2023-05-08T00:44:38;98561.16;;;15.18;100.00
55604;BME280;41468;48.838;9.330;2023-05-08T00:47:07;98567.44;;;15.11;100.00
55604;BME280;41468;48.838;9.330;2023-05-08T00:49:34;98565.88;;;15.14;100.00
55604;BME280;41468;48.838;9.330;2023-05-08T00:52:02;98576.06;;;15.10;100.00
55604;BME280;41468;48.838;9.330;2023-05-08T00:54:30;98576.09;;;15.24;100.00
55604;BME280;41468;48.838;9.330;2023-05-08T00:56:57;98569.00;;;15.41;100.00
55604;BME280;41468;48.838;9.330;2023-05-08T00:59:25;98572.94;;;15.22;100.00
55604;BME280;41468;48.838;9.330;2023-05-08T01:01:52;98572.16;;;15.18;100.00
55604;BME280;41468;48.838;9.330;2023-05-08T01:04:20;98572.16;;;15.18;100.00
55604;BME280;41468;48.838;9.330;2023-05-08T01:06:54;98570.19;;;15.22;100.00
55604;BME280;41468;48.838;9.330;2023-05-08T01:18:30;98576.50;;;15.15;100.00
55604;BME280;41468;48.838;9.330;2023-05-08T01:32:39;98584.75;;;15.30;100.00
55604;BME280;41468;48.838;9.330;2023-05-08T01:35:30;98588.66;;;15.18;100.00
55604;BME280;41468;48.838;9.330;2023-05-08T01:40:50;98587.88;;;15.28;100.00
55604;BME280;41468;48.838;9.330;2023-05-08T01:43:25;98595.75;;;15.26;100.00
55604;BME280;41468;48.838;9.330;2023-05-08T01:45:55;98596.53;;;15.27;100.00
55604;BME280;41468;48.838;9.330;2023-05-08T01:48:33;98599.66;;;15.36;100.00
55604;BME280;41468;48.838;9.330;2023-05-08T01:51:04;98599.66;;;15.25;100.00
55604;BME280;41468;48.838;9.330;2023-05-08T01:53:40;98595.72;;;15.19;100.00
55604;BME280;41468;48.838;9.330;2023-05-08T01:56:12;98604.38;;;15.21;100.00
55604;BME280;41468;48.838;9.330;2023-05-08T01:58:40;98607.13;;;15.21;100.00
55604;BME280;41468;48.838;9.330;2023-05-08T02:01:08;98602.00;;;15.12;100.00
55604;BME280;41468;48.838;9.330;2023-05-08T02:03:38;98605.56;;;15.13;100.00
55604;BME280;41468;48.838;9.330;2023-05-08T02:06:08;98600.44;;;15.11;100.00
55604;BME280;41468;48.838;9.330;2023-05-08T02:08:36;98597.69;;;15.18;100.00
55604;BME280;41468;48.838;9.330;2023-05-08T02:11:04;98602.00;;;15.19;100.00
55604;BME280;41468;48.838;9.330;2023-05-08T02:13:33;98598.88;;;15.17;100.00
55604;BME280;41468;48.838;9.330;2023-05-08T02:16:02;98606.72;;;15.19;100.00
55604;BME280;41468;48.838;9.330;2023-05-08T02:18:30;98607.53;;;15.16;100.00
55604;BME280;41468;48.838;9.330;2023-05-08T02:20:58;98608.28;;;15.20;100.00
55604;BME280;41468;48.838;9.330;2023-05-08T02:23:27;98607.53;;;15.16;100.00
55604;BME280;41468;48.838;9.330;2023-05-08T02:25:56;98611.06;;;15.16;100.00
55604;BME280;41468;48.838;9.330;2023-05-08T02:28:23;98607.53;;;15.16;100.00
55604;BME280;41468;48.838;9.330;2023-05-08T02:30:59;98609.06;;;15.20;100.00
55604;BME280;41468;48.838;9.330;2023-05-08T02:33:31;98614.19;;;15.15;100.00
55604;BME280;41468;48.838;9.330;2023-05-08T02:35:58;98609.09;;;15.17;100.00
55604;BME280;41468;48.838;9.330;2023-05-08T02:38:27;98611.44;;;15.25;100.00
55604;BME280;41468;48.838;9.330;2023-05-08T02:40:58;98604.38;;;15.24;100.00
55604;BME280;41468;48.838;9.330;2023-05-08T02:43:26;98611.47;;;15.18;100.00
55604;BME280;41468;48.838;9.330;2023-05-08T02:46:13;98616.94;;;15.15;100.00
55604;BME280;41468;48.838;9.330;2023-05-08T02:51:20;98616.56;;;15.13;100.00
55604;BME280;41468;48.838;9.330;2023-05-08T02:53:54;98612.22;;;15.19;100.00
55604;BME280;41468;48.838;9.330;2023-05-08T02:56:32;98609.88;;;15.17;100.00
55604;BME280;41468;48.838;9.330;2023-05-08T02:59:15;98613.81;;;15.27;100.00
55604;BME280;41468;48.838;9.330;2023-05-08T03:01:48;98616.56;;;15.23;100.00
55604;BME280;41468;48.838;9.330;2023-05-08T03:04:31;98619.72;;;15.36;100.00
55604;BME280;41468;48.838;9.330;2023-05-08T03:07:00;98609.88;;;15.28;100.00
55604;BME280;41468;48.838;9.330;2023-05-08T03:09:38;98607.94;;;15.29;100.00
55604;BME280;41468;48.838;9.330;2023-05-08T03:12:13;98610.28;;;15.16;100.00
55604;BME280;41468;48.838;9.330;2023-05-08T03:15:06;98602.00;;;15.19;100.00
55604;BME280;41468;48.838;9.330;2023-05-08T03:17:32;98600.06;;;15.27;100.00
55604;BME280;41468;48.838;9.330;2023-05-08T03:20:05;98601.63;;;15.21;100.00
55604;BME280;41468;48.838;9.330;2023-05-08T03:22:34;98599.66;;;15.18;100.00
55604;BME280;41468;48.838;9.330;2023-05-08T03:25:03;98598.88;;;15.14;100.00
55604;BME280;41468;48.838;9.330;2023-05-08T03:27:31;98591.78;;;15.20;100.00
55604;BME280;41468;48.838;9.330;2023-05-08T03:30:00;98595.72;;;15.22;100.00
55604;BME280;41468;48.838;9.330;2023-05-08T03:32:28;98596.53;;;15.16;100.00
55604;BME280;41468;48.838;9.330;2023-05-08T03:34:57;98609.06;;;15.10;100.00
55604;BME280;41468;48.838;9.330;2023-05-08T03:37:26;98602.81;;;15.13;100.00
55604;BME280;41468;48.838;9.330;2023-05-08T03:39:56;98603.16;;;15.00;100.00
55604;BME280;41468;48.838;9.330;2023-05-08T03:42:24;98608.66;;;15.04;100.00
55604;BME280;41468;48.838;9.330;2023-05-08T03:44:52;98607.50;;;15.09;100.00
55604;BME280;41468;48.838;9.330;2023-05-08T03:47:20;98609.09;;;15.13;100.00
55604;BME280;41468;48.838;9.330;2023-05-08T03:49:48;98605.53;;;15.06;100.00
55604;BME280;41468;48.838;9.330;2023-05-08T03:52:15;98606.69;;;15.01;100.00
55604;BME280;41468;48.838;9.330;2023-05-08T03:54:42;98607.91;;;15.07;100.00
55604;BME280;41468;48.838;9.330;2023-05-08T03:57:09;98606.72;;;15.05;100.00
55604;BME280;41468;48.838;9.330;2023-05-08T04:00:00;98607.91;;;15.11;100.00
55604;BME280;41468;48.838;9.330;2023-05-08T04:02:43;98610.66;;;15.07;100.00
55604;BME280;41468;48.838;9.330;2023-05-08T04:05:34;98606.72;;;15.05;100.00
55604;BME280;41468;48.838;9.330;2023-05-08T04:08:19;98611.03;;;15.06;100.00
55604;BME280;41468;48.838;9.330;2023-05-08T04:10:54;98610.22;;;14.94;100.00
55604;BME280;41468;48.838;9.330;2023-05-08T04:13:27;98612.97;;;15.01;100.00
55604;BME280;41468;48.838;9.330;2023-05-08T04:16:10;98616.94;;;15.11;100.00
55604;BME280;41468;48.838;9.330;2023-05-08T04:18:44;98618.50;;;15.09;100.00
55604;BME280;41468;48.838;9.330;2023-05-08T04:21:14;98624.38;;;15.00;100.00
55604;BME280;41468;48.838;9.330;2023-05-08T04:23:45;98627.94;;;15.15;100.00
55604;BME280;41468;48.838;9.330;2023-05-08T04:26:15;98627.94;;;15.15;100.00
55604;BME280;41468;48.838;9.330;2023-05-08T04:28:43;98632.66;;;15.07;100.00
55604;BME280;41468;48.838;9.330;2023-05-08T04:31:15;98635.81;;;15.20;100.00
55604;BME280;41468;48.838;9.330;2023-05-08T04:33:48;98631.88;;;15.10;100.00
55604;BME280;41468;48.838;9.330;2023-05-08T04:36:15;98632.28;;;15.16;100.00
55604;BME280;41468;48.838;9.330;2023-05-08T04:38:42;98640.53;;;15.19;100.00
55604;BME280;41468;48.838;9.330;2023-05-08T04:41:13;98638.97;;;15.18;100.00
55604;BME280;41468;48.838;9.330;2023-05-08T04:43:41;98648.41;;;15.21;100.00
55604;BME280;41468;48.838;9.330;2023-05-08T04:46:08;98651.09;;;14.99;100.00
55604;BME280;41468;48.838;9.330;2023-05-08T04:48:35;98650.66;;;14.83;100.00
55604;BME280;41468;48.838;9.330;2023-05-08T04:51:02;98648.34;;;15.03;100.00
55604;BME280;41468;48.838;9.330;2023-05-08T04:53:28;98646.78;;;15.06;100.00
55604;BME280;41468;48.838;9.330;2023-05-08T04:55:55;98653.88;;;15.14;100.00
55604;BME280;41468;48.838;9.330;2023-05-08T04:58:23;98651.94;;;15.21;100.00
55604;BME280;41468;48.838;9.330;2023-05-08T05:00:50;98653.06;;;15.10;100.00
55604;BME280;41468;48.838;9.330;2023-05-08T05:03:16;98655.44;;;15.15;100.00
55604;BME280;41468;48.838;9.330;2023-05-08T05:05:43;98658.59;;;15.20;100.00
55604;BME280;41468;48.838;9.330;2023-05-08T05:08:10;98664.91;;;15.21;100.00
55604;BME280;41468;48.838;9.330;2023-05-08T05:10:37;98662.94;;;15.21;100.00
55604;BME280;41468;48.838;9.330;2023-05-08T05:13:05;98663.31;;;15.16;100.00
55604;BME280;41468;48.838;9.330;2023-05-08T05:15:31;98662.94;;;15.21;100.00
55604;BME280;41468;48.838;9.330;2023-05-08T05:17:58;98663.72;;;15.18;100.00
55604;BME280;41468;48.838;9.330;2023-05-08T05:20:25;98668.78;;;15.06;100.00
55604;BME280;41468;48.838;9.330;2023-05-08T05:22:51;98666.47;;;15.22;100.00
55604;BME280;41468;48.838;9.330;2023-05-08T05:25:24;98670.31;;;14.96;100.00
55604;BME280;41468;48.838;9.330;2023-05-08T05:27:50;98667.56;;;14.89;100.00
55604;BME280;41468;48.838;9.330;2023-05-08T05:30:17;98672.69;;;14.97;100.00
55604;BME280;41468;48.838;9.330;2023-05-08T05:32:44;98670.31;;;14.92;100.00
55604;BME280;41468;48.838;9.330;2023-05-08T05:35:11;98677.78;;;14.99;100.00
55604;BME280;41468;48.838;9.330;2023-05-08T05:37:48;98670.38;;;15.10;100.00
55604;BME280;41468;48.838;9.330;2023-05-08T05:40:15;98672.72;;;15.08;100.00
55604;BME280;41468;48.838;9.330;2023-05-08T05:42:47;98678.25;;;15.19;100.00
55604;BME280;41468;48.838;9.330;2023-05-08T05:45:14;98681.38;;;15.17;100.00
55604;BME280;41468;48.838;9.330;2023-05-08T05:47:47;98684.13;;;15.14;100.00
55604;BME280;41468;48.838;9.330;2023-05-08T05:50:16;98680.63;;;15.24;100.00
55604;BME280;41468;48.838;9.330;2023-05-08T05:52:44;98686.50;;;15.19;100.00
55604;BME280;41468;48.838;9.330;2023-05-08T05:55:11;98694.72;;;15.05;100.00
55604;BME280;41468;48.838;9.330;2023-05-08T05:57:39;98685.31;;;15.20;100.00
55604;BME280;41468;48.838;9.330;2023-05-08T06:00:06;98685.31;;;15.20;100.00
55604;BME280;41468;48.838;9.330;2023-05-08T06:02:35;98686.13;;;15.28;100.00
55604;BME280;41468;48.838;9.330;2023-05-08T06:05:02;98683.00;;;15.33;100.00
55604;BME280;41468;48.838;9.330;2023-05-08T06:07:29;98688.50;;;15.29;100.00
55604;BME280;41468;48.838;9.330;2023-05-08T06:09:56;98680.25;;;15.36;100.00
55604;BME280;41468;48.838;9.330;2023-05-08T06:12:22;98686.16;;;15.38;100.00
55604;BME280;41468;48.838;9.330;2023-05-08T06:14:50;98690.84;;;15.41;100.00
55604;BME280;41468;48.838;9.330;2023-05-08T06:17:17;98685.34;;;15.41;100.00
55604;BME280;41468;48.838;9.330;2023-05-08T06:19:44;98688.53;;;15.54;100.00
55604;BME280;41468;48.838;9.330;2023-05-08T06:22:16;98685.00;;;15.54;100.00
55604;BME280;41468;48.838;9.330;2023-05-08T06:24:43;98692.09;;;15.58;100.00
55604;BME280;41468;48.838;9.330;2023-05-08T06:27:10;98690.09;;;15.62;100.00
55604;BME280;41468;48.838;9.330;2023-05-08T06:29:37;98696.38;;;15.34;100.00
55604;BME280;41468;48.838;9.330;2023-05-08T06:32:04;98692.84;;;15.48;100.00
55604;BME280;41468;48.838;9.330;2023-05-08T06:34:31;98690.91;;;15.59;100.00
55604;BME280;41468;48.838;9.330;2023-05-08T06:36:58;98696.75;;;15.47;100.00
55604;BME280;41468;48.838;9.330;2023-05-08T06:39:24;98694.44;;;15.60;100.00
55604;BME280;41468;48.838;9.330;2023-05-08T06:41:51;98696.41;;;15.59;100.00
55604;BME280;41468;48.838;9.330;2023-05-08T06:44:18;98705.84;;;15.58;100.00
55604;BME280;41468;48.838;9.330;2023-05-08T06:46:44;98705.06;;;15.65;100.00
55604;BME280;41468;48.838;9.330;2023-05-08T06:49:11;98700.72;;;15.57;100.00
55604;BME280;41468;48.838;9.330;2023-05-08T06:51:38;98701.13;;;15.59;100.00
55604;BME280;41468;48.838;9.330;2023-05-08T06:54:04;98700.38;;;15.69;100.00
55604;BME280;41468;48.838;9.330;2023-05-08T06:56:34;98700.38;;;15.69;100.00
55604;BME280;41468;48.838;9.330;2023-05-08T06:59:00;98694.81;;;15.65;100.00
55604;BME280;41468;48.838;9.330;2023-05-08T07:01:34;98706.63;;;15.59;100.00
55604;BME280;41468;48.838;9.330;2023-05-08T07:04:01;98698.75;;;15.57;100.00
55604;BME280;41468;48.838;9.330;2023-05-08T07:06:28;98698.78;;;15.82;100.00
55604;BME280;41468;48.838;9.330;2023-05-08T07:08:56;98701.53;;;15.82;100.00
55604;BME280;41468;48.838;9.330;2023-05-08T07:11:23;98701.16;;;15.87;100.00
55604;BME280;41468;48.838;9.330;2023-05-08T07:13:50;98710.59;;;15.68;100.00
55604;BME280;41468;48.838;9.330;2023-05-08T07:16:17;98709.81;;;15.75;100.00
55604;BME280;41468;48.838;9.330;2023-05-08T07:18:43;98710.59;;;15.76;100.00
55604;BME280;41468;48.838;9.330;2023-05-08T07:21:10;98712.97;;;15.77;100.00
55604;BME280;41468;48.838;9.330;2023-05-08T07:23:37;98715.28;;;15.64;100.00
55604;BME280;41468;48.838;9.330;2023-05-08T07:26:03;98714.13;;;15.76;100.00
55604;BME280;41468;48.838;9.330;2023-05-08T07:28:30;98716.13;;;15.83;100.00
55604;BME280;41468;48.838;9.330;2023-05-08T07:30:57;98712.97;;;15.95;100.00
55604;BME280;41468;48.838;9.330;2023-05-08T07:33:23;98718.06;;;15.82;100.00
55604;BME280;41468;48.838;9.330;2023-05-08T07:35:50;98715.72;;;15.88;100.00
55604;BME280;41468;48.838;9.330;2023-05-08T07:38:18;98716.09;;;16.01;100.00
55604;BME280;41468;48.838;9.330;2023-05-08T07:40:44;98717.66;;;15.87;100.00
55604;BME280;41468;48.838;9.330;2023-05-08T07:43:11;98715.72;;;15.95;100.00
55604;BME280;41468;48.838;9.330;2023-05-08T07:45:39;98727.91;;;15.98;100.00
55604;BME280;41468;48.838;9.330;2023-05-08T07:48:07;98722.00;;;16.21;100.00
55604;BME280;41468;48.838;9.330;2023-05-08T07:50:34;98727.53;;;16.10;100.00
55604;BME280;41468;48.838;9.330;2023-05-08T07:53:01;98722.41;;;16.23;100.00
55604;BME280;41468;48.838;9.330;2023-05-08T07:55:28;98719.66;;;16.23;100.00
55604;BME280;41468;48.838;9.330;2023-05-08T07:57:55;98715.31;;;16.22;100.00
55604;BME280;41468;48.838;9.330;2023-05-08T08:00:21;98717.69;;;15.95;100.00
55604;BME280;41468;48.838;9.330;2023-05-08T08:02:48;98726.31;;;16.04;100.00
55604;BME280;41468;48.838;9.330;2023-05-08T08:05:15;98725.53;;;16.03;100.00
55604;BME280;41468;48.838;9.330;2023-05-08T08:07:42;98731.44;;;15.98;100.00
55604;BME280;41468;48.838;9.330;2023-05-08T08:10:09;98727.13;;;16.19;100.00
55604;BME280;41468;48.838;9.330;2023-05-08T08:12:36;98721.22;;;16.20;100.00
55604;BME280;41468;48.838;9.330;2023-05-08T08:15:03;98721.19;;;16.27;100.00
55604;BME280;41468;48.838;9.330;2023-05-08T08:17:30;98729.47;;;16.31;100.00
55604;BME280;41468;48.838;9.330;2023-05-08T08:19:56;98726.31;;;16.04;100.00
55604;BME280;41468;48.838;9.330;2023-05-08T08:22:24;98725.16;;;16.26;100.00
55604;BME280;41468;48.838;9.330;2023-05-08T08:24:53;98729.44;;;16.38;100.00
55604;BME280;41468;48.838;9.330;2023-05-08T08:27:21;98731.03;;;16.50;100.00
55604;BME280;41468;48.838;9.330;2023-05-08T08:29:48;98729.84;;;16.37;100.00
55604;BME280;41468;48.838;9.330;2023-05-08T08:32:18;98733.38;;;16.48;100.00
55604;BME280;41468;48.838;9.330;2023-05-08T08:34:44;98744.81;;;16.43;100.00
55604;BME280;41468;48.838;9.330;2023-05-08T08:37:11;98738.91;;;16.44;100.00
55604;BME280;41468;48.838;9.330;2023-05-08T08:39:40;98737.34;;;16.29;100.00
55604;BME280;41468;48.838;9.330;2023-05-08T08:42:07;98742.81;;;16.54;100.00
55604;BME280;41468;48.838;9.330;2023-05-08T08:44:34;98735.38;;;16.37;100.00
55604;BME280;41468;48.838;9.330;2023-05-08T08:47:01;98732.63;;;16.37;100.00
55604;BME280;41468;48.838;9.330;2023-05-08T08:49:30;98731.41;;;16.45;100.00
55604;BME280;41468;48.838;9.330;2023-05-08T08:52:01;98737.31;;;16.36;100.00
55604;BME280;41468;48.838;9.330;2023-05-08T08:54:32;98732.63;;;16.37;100.00
55604;BME280;41468;48.838;9.330;2023-05-08T08:57:05;98738.47;;;16.56;100.00
55604;BME280;41468;48.838;9.330;2023-05-08T08:59:33;98735.69;;;16.60;100.00
55604;BME280;41468;48.838;9.330;2023-05-08T09:02:09;98745.94;;;16.60;100.00
55604;BME280;41468;48.838;9.330;2023-05-08T09:04:37;98744.38;;;16.66;100.00
55604;BME280;41468;48.838;9.330;2023-05-08T09:07:04;98748.28;;;16.72;100.00
55604;BME280;41468;48.838;9.330;2023-05-08T09:09:32;98747.91;;;16.81;100.00
55604;BME280;41468;48.838;9.330;2023-05-08T09:12:01;98749.84;;;16.84;100.00
55604;BME280;41468;48.838;9.330;2023-05-08T09:14:28;98744.38;;;16.62;100.00
55604;BME280;41468;48.838;9.330;2023-05-08T09:16:55;98743.53;;;16.76;100.00
55604;BME280;41468;48.838;9.330;2023-05-08T09:19:22;98743.22;;;16.52;100.00
55604;BME280;41468;48.838;9.330;2023-05-08T09:21:53;98751.06;;;16.54;100.00
55604;BME280;41468;48.838;9.330;2023-05-08T09:24:20;98745.13;;;16.70;100.00
55604;BME280;41468;48.838;9.330;2023-05-08T09:26:48;98745.94;;;16.67;100.00
55604;BME280;41468;48.838;9.330;2023-05-08T09:29:16;98746.34;;;16.54;100.00
55604;BME280;41468;48.838;9.330;2023-05-08T09:31:45;98743.59;;;16.58;100.00
55604;BME280;41468;48.838;9.330;2023-05-08T09:34:29;98744.38;;;16.59;100.00
55604;BME280;41468;48.838;9.330;2023-05-08T09:37:11;98733.72;;;16.71;100.00
55604;BME280;41468;48.838;9.330;2023-05-08T09:39:38;98740.03;;;16.72;100.00
55604;BME280;41468;48.838;9.330;2023-05-08T09:42:09;98740.47;;;16.49;100.00
55604;BME280;41468;48.838;9.330;2023-05-08T09:44:43;98741.22;;;16.60;100.00
55604;BME280;41468;48.838;9.330;2023-05-08T09:47:22;98744.00;;;16.56;100.00
55604;BME280;41468;48.838;9.330;2023-05-08T09:49:59;98743.19;;;16.77;100.00
55604;BME280;41468;48.838;9.330;2023-05-08T09:52:27;98742.34;;;16.91;100.00
55604;BME280;41468;48.838;9.330;2023-05-08T09:55:08;98748.16;;;17.15;100.00
55604;BME280;41468;48.838;9.330;2023-05-08T09:57:38;98746.28;;;16.94;100.00
55604;BME280;41468;48.838;9.330;2023-05-08T10:02:35;98744.56;;;17.21;100.00
55604;BME280;41468;48.838;9.330;2023-05-08T10:05:21;98754.03;;;17.24;100.00
55604;BME280;41468;48.838;9.330;2023-05-08T10:07:53;98750.88;;;17.26;100.00
55604;BME280;41468;48.838;9.330;2023-05-08T10:10:27;98754.03;;;17.28;100.00
55604;BME280;41468;48.838;9.330;2023-05-08T10:12:55;98755.56;;;17.36;100.00
55604;BME280;41468;48.838;9.330;2023-05-08T10:15:24;98753.53;;;17.43;100.00
55604;BME280;41468;48.838;9.330;2023-05-08T10:20:29;98756.97;;;17.65;97.52
55604;BME280;41468;48.838;9.330;2023-05-08T10:22:57;98752.31;;;17.52;97.18
55604;BME280;41468;48.838;9.330;2023-05-08T10:25:24;98750.22;;;17.74;98.58
55604;BME280;41468;48.838;9.330;2023-05-08T10:28:01;98742.66;;;17.78;100.00
55604;BME280;41468;48.838;9.330;2023-05-08T10:30:33;98749.38;;;17.84;100.00
55604;BME280;41468;48.838;9.330;2023-05-08T10:33:01;98750.97;;;17.78;100.00
55604;BME280;41468;48.838;9.330;2023-05-08T10:35:28;98745.50;;;17.71;100.00
55604;BME280;41468;48.838;9.330;2023-05-08T10:37:57;98740.84;;;17.60;100.00
55604;BME280;41468;48.838;9.330;2023-05-08T10:40:24;98749.88;;;17.64;100.00
55604;BME280;41468;48.838;9.330;2023-05-08T10:42:51;98743.25;;;17.55;100.00
55604;BME280;41468;48.838;9.330;2023-05-08T10:45:17;98744.72;;;17.66;100.00
55604;BME280;41468;48.838;9.330;2023-05-08T10:47:50;98750.22;;;17.70;100.00
55604;BME280;41468;48.838;9.330;2023-05-08T10:50:44;98748.75;;;17.51;100.00
55604;BME280;41468;48.838;9.330;2023-05-08T10:53:51;98746.91;;;17.34;100.00
55604;BME280;41468;48.838;9.330;2023-05-08T10:56:26;98734.72;;;17.28;100.00
55604;BME280;41468;48.838;9.330;2023-05-08T10:58:59;98741.44;;;17.23;100.00
55604;BME280;41468;48.838;9.330;2023-05-08T11:01:26;98742.53;;;17.36;100.00
55604;BME280;41468;48.838;9.330;2023-05-08T11:03:53;98740.97;;;17.39;100.00
55604;BME280;41468;48.838;9.330;2023-05-08T11:06:44;98740.56;;;17.37;100.00
55604;BME280;41468;48.838;9.330;2023-05-08T11:09:19;98740.97;;;17.35;100.00
55604;BME280;41468;48.838;9.330;2023-05-08T11:12:27;98738.19;;;17.39;100.00
55604;BME280;41468;48.838;9.330;2023-05-08T11:15:00;98735.81;;;17.41;100.00
55604;BME280;41468;48.838;9.330;2023-05-08T11:17:28;98741.72;;;17.43;100.00
55604;BME280;41468;48.838;9.330;2023-05-08T11:19:57;98735.81;;;17.37;100.00
55604;BME280;41468;48.838;9.330;2023-05-08T11:22:26;98742.53;;;17.40;100.00
55604;BME280;41468;48.838;9.330;2023-05-08T11:24:59;98736.25;;;17.36;100.00
55604;BME280;41468;48.838;9.330;2023-05-08T11:27:38;98748.03;;;17.40;100.00
55604;BME280;41468;48.838;9.330;2023-05-08T11:38:34;98736.19;;;17.47;100.00
55604;BME280;41468;48.838;9.330;2023-05-08T11:41:20;98730.66;;;17.47;100.00
55604;BME280;41468;48.838;9.330;2023-05-08T11:46:41;98730.47;;;17.75;100.00
55604;BME280;41468;48.838;9.330;2023-05-08T11:49:13;98731.19;;;17.90;100.00
55604;BME280;41468;48.838;9.330;2023-05-08T11:51:44;98715.25;;;18.05;100.00
55604;BME280;41468;48.838;9.330;2023-05-08T11:54:13;98714.22;;;18.33;100.00
55604;BME280;41468;48.838;9.330;2023-05-08T11:56:40;98713.81;;;18.76;100.00
55604;BME280;41468;48.838;9.330;2023-05-08T11:59:08;98709.56;;;18.98;100.00
55604;BME280;41468;48.838;9.330;2023-05-08T12:01:35;98718.28;;;19.28;100.00
55604;BME280;41468;48.838;9.330;2023-05-08T12:04:10;98709.06;;;19.38;100.00
55604;BME280;41468;48.838;9.330;2023-05-08T12:06:38;98714.06;;;19.47;95.35
55604;BME280;41468;48.838;9.330;2023-05-08T12:09:14;98715.16;;;19.53;99.51
55604;BME280;41468;48.838;9.330;2023-05-08T12:11:42;98715.06;;;19.60;98.35
55604;BME280;41468;48.838;9.330;2023-05-08T12:14:11;98720.00;;;19.49;93.47
55604;BME280;41468;48.838;9.330;2023-05-08T12:16:39;98712.53;;;19.73;90.40
55604;BME280;41468;48.838;9.330;2023-05-08T12:19:10;98714.00;;;19.50;97.66
55604;BME280;41468;48.838;9.330;2023-05-08T12:21:45;98710.19;;;19.71;99.46
55604;BME280;41468;48.838;9.330;2023-05-08T12:24:30;98704.38;;;19.89;99.27
55604;BME280;41468;48.838;9.330;2023-05-08T12:26:57;98710.50;;;20.00;94.87
55604;BME280;41468;48.838;9.330;2023-05-08T12:29:23;98710.75;;;19.86;93.10
55604;BME280;41468;48.838;9.330;2023-05-08T12:31:50;98715.47;;;19.31;99.59
55604;BME280;41468;48.838;9.330;2023-05-08T12:34:17;98711.63;;;18.91;100.00
55604;BME280;41468;48.838;9.330;2023-05-08T12:36:44;98711.16;;;19.00;96.02
55604;BME280;41468;48.838;9.330;2023-05-08T12:39:15;98704.94;;;18.88;97.25
55604;BME280;41468;48.838;9.330;2023-05-08T12:41:46;98701.13;;;18.79;100.00
55604;BME280;41468;48.838;9.330;2023-05-08T12:44:24;98708.28;;;18.76;97.00
55604;BME280;41468;48.838;9.330;2023-05-08T12:46:53;98706.25;;;18.80;97.91
55604;BME280;41468;48.838;9.330;2023-05-08T12:49:28;98714.59;;;18.73;100.00
55604;BME280;41468;48.838;9.330;2023-05-08T12:52:06;98701.28;;;18.61;95.53
55604;BME280;41468;48.838;9.330;2023-05-08T12:54:44;98703.34;;;18.15;99.44
55604;BME280;41468;48.838;9.330;2023-05-08T12:57:13;98707.31;;;18.14;100.00
55604;BME280;41468;48.838;9.330;2023-05-08T12:59:41;98705.50;;;18.35;100.00
55604;BME280;41468;48.838;9.330;2023-05-08T13:02:16;98710.56;;;18.02;98.03
55604;BME280;41468;48.838;9.330;2023-05-08T13:04:44;98709.38;;;18.03;97.61
55604;BME280;41468;48.838;9.330;2023-05-08T13:07:11;98708.94;;;18.04;95.88
55604;BME280;41468;48.838;9.330;2023-05-08T13:09:38;98694.00;;;17.98;93.25
55604;BME280;41468;48.838;9.330;2023-05-08T13:12:06;98701.00;;;18.14;93.70
55604;BME280;41468;48.838;9.330;2023-05-08T13:14:32;98700.91;;;18.21;92.06
55604;BME280;41468;48.838;9.330;2023-05-08T13:17:04;98686.03;;;18.07;92.08
55604;BME280;41468;48.838;9.330;2023-05-08T13:19:30;98695.81;;;18.19;93.10
55604;BME280;41468;48.838;9.330;2023-05-08T13:21:57;98691.28;;;18.36;93.75
55604;BME280;41468;48.838;9.330;2023-05-08T13:24:24;98692.22;;;18.22;93.82
55604;BME280;41468;48.838;9.330;2023-05-08T13:26:51;98686.59;;;18.33;95.74
55604;BME280;41468;48.838;9.330;2023-05-08T13:29:18;98686.25;;;18.24;91.97
55604;BME280;41468;48.838;9.330;2023-05-08T13:31:47;98699.19;;;18.38;92.25
55604;BME280;41468;48.838;9.330;2023-05-08T13:34:14;98689.50;;;18.57;92.41
55604;BME280;41468;48.838;9.330;2023-05-08T13:36:40;98689.53;;;18.53;94.02
55604;BME280;41468;48.838;9.330;2023-05-08T13:39:07;98689.50;;;18.57;88.71
55604;BME280;41468;48.838;9.330;2023-05-08T13:41:34;98687.47;;;18.61;89.73
55604;BME280;41468;48.838;9.330;2023-05-08T13:44:00;98687.22;;;18.48;87.91
55604;BME280;41468;48.838;9.330;2023-05-08T13:46:27;98687.97;;;18.52;88.65